createdAt,value
2022-09-17T00:00:19.669Z,1004.37
2022-09-17T00:01:19.776Z,1004.32
2022-09-17T00:02:19.904Z,1004.34
2022-09-17T00:03:20.123Z,1004.35
2022-09-17T00:04:20.245Z,1004.38
2022-09-17T00:05:20.324Z,1004.37
2022-09-17T00:06:20.409Z,1004.35
2022-09-17T00:07:20.586Z,1004.41
2022-09-17T00:08:20.732Z,1004.33
2022-09-17T00:09:20.832Z,1004.34
2022-09-17T00:10:20.952Z,1004.39
2022-09-17T00:11:21.098Z,1004.36
2022-09-17T00:12:21.221Z,1004.39
2022-09-17T00:13:21.361Z,1004.32
2022-09-17T00:14:21.453Z,1004.34
2022-09-17T00:15:21.662Z,1004.33
2022-09-17T00:16:21.763Z,1004.30
2022-09-17T00:17:21.841Z,1004.32
2022-09-17T00:18:21.933Z,1004.37
2022-09-17T00:19:22.073Z,1004.38
2022-09-17T00:20:22.194Z,1004.45
2022-09-17T00:21:22.334Z,1004.36
2022-09-17T00:22:22.561Z,1004.48
2022-09-17T00:23:22.602Z,1004.44
2022-09-17T00:24:22.691Z,1004.48
2022-09-17T00:25:22.850Z,1004.43
2022-09-17T00:26:22.991Z,1004.50
2022-09-17T00:27:23.124Z,1004.44
2022-09-17T00:28:23.250Z,1004.52
2022-09-17T00:29:23.390Z,1004.50
2022-09-17T00:30:23.542Z,1004.47
2022-09-17T00:31:23.730Z,1004.47
2022-09-17T00:32:23.812Z,1004.49
2022-09-17T00:33:23.962Z,1004.46
2022-09-17T00:34:24.050Z,1004.49
2022-09-17T00:35:24.203Z,1004.50
2022-09-17T00:36:24.315Z,1004.49
2022-09-17T00:37:24.523Z,1004.55
2022-09-17T00:38:24.603Z,1004.53
2022-09-17T00:39:24.720Z,1004.53
2022-09-17T00:40:24.902Z,1004.55
2022-09-17T00:41:24.999Z,1004.53
2022-09-17T00:42:25.119Z,1004.55
2022-09-17T00:43:25.261Z,1004.59
2022-09-17T00:44:25.419Z,1004.59
2022-09-17T00:45:25.552Z,1004.54
2022-09-17T00:46:25.713Z,1004.57
2022-09-17T00:47:25.822Z,1004.58
2022-09-17T00:48:25.980Z,1004.60
2022-09-17T00:49:26.141Z,1004.59
2022-09-17T00:50:26.292Z,1004.63
2022-09-17T00:51:26.420Z,1004.65
2022-09-17T00:52:26.541Z,1004.65
2022-09-17T00:53:26.709Z,1004.66
2022-09-17T00:54:26.781Z,1004.67
2022-09-17T00:55:26.922Z,1004.69
2022-09-17T00:56:27.078Z,1004.62
2022-09-17T00:57:27.918Z,1004.62
2022-09-17T00:58:27.343Z,1004.68
2022-09-17T00:59:27.424Z,1004.63
2022-09-17T01:00:27.515Z,1004.64
2022-09-17T01:01:27.694Z,1004.66
2022-09-17T01:02:27.809Z,1004.69
2022-09-17T01:03:27.891Z,1004.70
2022-09-17T01:04:28.028Z,1004.68
2022-09-17T01:05:28.160Z,1004.61
2022-09-17T01:06:28.287Z,1004.69
2022-09-17T01:07:28.539Z,1004.64
2022-09-17T01:08:28.532Z,1004.62
2022-09-17T01:09:28.698Z,1004.66
2022-09-17T01:10:28.790Z,1004.68
2022-09-17T01:11:28.920Z,1004.68
2022-09-17T01:12:29.037Z,1004.65
2022-09-17T01:13:29.170Z,1004.72
2022-09-17T01:14:29.310Z,1004.70
2022-09-17T01:15:29.439Z,1004.66
2022-09-17T01:16:29.601Z,1004.66
2022-09-17T01:17:29.703Z,1004.70
2022-09-17T01:18:29.858Z,1004.71
2022-09-17T01:19:29.966Z,1004.69
2022-09-17T01:20:30.078Z,1004.75
2022-09-17T01:21:30.208Z,1004.75
2022-09-17T01:22:30.340Z,1004.71
2022-09-17T01:23:30.478Z,1004.73
2022-09-17T01:24:30.655Z,1004.79
2022-09-17T01:25:30.746Z,1004.77
2022-09-17T01:26:30.872Z,1004.73
2022-09-17T01:27:31.007Z,1004.77
2022-09-17T01:28:31.167Z,1004.72
2022-09-17T01:29:31.359Z,1004.81
2022-09-17T01:30:31.456Z,1004.77
2022-09-17T01:31:31.569Z,1004.81
2022-09-17T01:32:31.667Z,1004.83
2022-09-17T01:33:31.819Z,1004.81
2022-09-17T01:34:31.907Z,1004.83
2022-09-17T01:35:32.068Z,1004.81
2022-09-17T01:36:32.208Z,1004.81
2022-09-17T01:37:32.350Z,1004.80
2022-09-17T01:38:32.495Z,1004.76
2022-09-17T01:39:33.351Z,1004.77
2022-09-17T01:40:32.786Z,1004.73
2022-09-17T01:41:32.848Z,1004.82
2022-09-17T01:42:32.976Z,1004.85
2022-09-17T01:43:33.105Z,1004.86
2022-09-17T01:44:33.244Z,1004.82
2022-09-17T01:45:33.385Z,1004.86
2022-09-17T01:46:33.555Z,1004.86
2022-09-17T01:47:33.686Z,1004.88
2022-09-17T01:48:33.805Z,1004.81
2022-09-17T01:49:34.044Z,1004.83
2022-09-17T01:50:34.078Z,1004.82
2022-09-17T01:51:34.205Z,1004.85
2022-09-17T01:52:34.326Z,1004.83
2022-09-17T01:53:34.465Z,1004.77
2022-09-17T01:54:36.328Z,1004.84
2022-09-17T01:55:34.718Z,1004.75
2022-09-17T01:56:34.813Z,1004.80
2022-09-17T01:57:34.945Z,1004.81
2022-09-17T01:58:35.066Z,1004.83
2022-09-17T01:59:35.215Z,1004.82
2022-09-17T02:00:35.403Z,1004.82
2022-09-17T02:01:35.414Z,1004.81
2022-09-17T02:02:35.541Z,1004.84
2022-09-17T02:03:35.674Z,1004.83
2022-09-17T02:04:35.844Z,1004.84
2022-09-17T02:05:36.004Z,1004.81
2022-09-17T02:06:36.134Z,1004.83
2022-09-17T02:07:36.264Z,1004.81
2022-09-17T02:08:36.383Z,1004.85
2022-09-17T02:09:36.535Z,1004.76
2022-09-17T02:10:36.651Z,1004.85
2022-09-17T02:11:36.759Z,1004.82
2022-09-17T02:12:36.834Z,1004.82
2022-09-17T02:13:36.975Z,1004.84
2022-09-17T02:14:37.103Z,1004.80
2022-09-17T02:15:37.322Z,1004.79
2022-09-17T02:16:37.343Z,1004.79
2022-09-17T02:17:37.484Z,1004.79
2022-09-17T02:18:37.606Z,1004.74
2022-09-17T02:19:37.731Z,1004.73
2022-09-17T02:20:37.872Z,1004.70
2022-09-17T02:21:38.016Z,1004.68
2022-09-17T02:22:38.100Z,1004.72
2022-09-17T02:23:38.240Z,1004.74
2022-09-17T02:24:38.393Z,1004.78
2022-09-17T02:25:38.540Z,1004.79
2022-09-17T02:26:38.697Z,1004.80
2022-09-17T02:27:38.813Z,1004.79
2022-09-17T02:28:38.922Z,1004.77
2022-09-17T02:29:39.054Z,1004.77
2022-09-17T02:30:39.173Z,1004.78
2022-09-17T02:31:39.324Z,1004.80
2022-09-17T02:32:39.414Z,1004.80
2022-09-17T02:33:39.529Z,1004.81
2022-09-17T02:34:39.689Z,1004.83
2022-09-17T02:35:39.821Z,1004.85
2022-09-17T02:36:40.001Z,1004.91
2022-09-17T02:37:40.161Z,1004.90
2022-09-17T02:38:40.302Z,1004.94
2022-09-17T02:39:40.422Z,1004.88
2022-09-17T02:40:40.549Z,1004.95
2022-09-17T02:41:40.698Z,1004.97
2022-09-17T02:42:40.834Z,1004.96
2022-09-17T02:43:40.954Z,1004.94
2022-09-17T02:44:41.103Z,1005.01
2022-09-17T02:45:41.182Z,1005.00
2022-09-17T02:46:41.381Z,1005.02
2022-09-17T02:47:41.458Z,1004.97
2022-09-17T02:48:41.578Z,1004.93
2022-09-17T02:49:41.702Z,1004.96
2022-09-17T02:50:41.831Z,1004.97
2022-09-17T02:51:41.966Z,1004.95
2022-09-17T02:52:42.113Z,1005.02
2022-09-17T02:53:42.219Z,1005.02
2022-09-17T02:54:42.411Z,1005.08
2022-09-17T02:55:42.499Z,1005.09
2022-09-17T02:56:42.646Z,1005.08
2022-09-17T02:57:42.767Z,1005.01
2022-09-17T02:58:42.912Z,1005.08
2022-09-17T02:59:43.009Z,1004.99
2022-09-17T03:00:43.191Z,1005.02
2022-09-17T03:01:43.362Z,1005.02
2022-09-17T03:02:44.847Z,1005.06
2022-09-17T03:03:43.499Z,1005.01
2022-09-17T03:04:43.628Z,1005.06
2022-09-17T03:05:43.788Z,1005.02
2022-09-17T03:06:43.960Z,1005.05
2022-09-17T03:07:44.096Z,1005.03
2022-09-17T03:08:44.220Z,1005.05
2022-09-17T03:09:44.328Z,1005.02
2022-09-17T03:10:44.508Z,1005.06
2022-09-17T03:11:44.629Z,1005.08
2022-09-17T03:12:44.757Z,1005.07
2022-09-17T03:13:44.876Z,1005.10
2022-09-17T03:14:44.996Z,1005.10
2022-09-17T03:15:45.143Z,1005.06
2022-09-17T03:16:45.290Z,1005.05
2022-09-17T03:17:46.103Z,1005.14
2022-09-17T03:18:45.537Z,1005.12
2022-09-17T03:19:45.677Z,1005.18
2022-09-17T03:20:45.808Z,1005.22
2022-09-17T03:21:45.925Z,1005.18
2022-09-17T03:22:46.058Z,1005.16
2022-09-17T03:23:46.180Z,1005.16
2022-09-17T03:24:46.338Z,1005.21
2022-09-17T03:25:46.495Z,1005.23
2022-09-17T03:26:46.594Z,1005.23
2022-09-17T03:27:46.727Z,1005.21
2022-09-17T03:28:46.858Z,1005.22
2022-09-17T03:29:46.966Z,1005.16
2022-09-17T03:30:47.087Z,1005.17
2022-09-17T03:31:47.265Z,1005.09
2022-09-17T03:32:47.327Z,1005.13
2022-09-17T03:33:47.446Z,1005.13
2022-09-17T03:34:47.595Z,1005.12
2022-09-17T03:35:47.714Z,1005.11
2022-09-17T03:36:47.854Z,1005.13
2022-09-17T03:37:47.967Z,1005.16
2022-09-17T03:38:48.288Z,1005.17
2022-09-17T03:39:48.256Z,1005.26
2022-09-17T03:40:48.375Z,1005.23
2022-09-17T03:41:48.511Z,1005.25
2022-09-17T03:42:48.656Z,1005.21
2022-09-17T03:43:48.783Z,1005.15
2022-09-17T03:44:49.059Z,1005.13
2022-09-17T03:45:49.065Z,1005.15
2022-09-17T03:46:49.241Z,1005.13
2022-09-17T03:47:49.343Z,1005.12
2022-09-17T03:48:49.471Z,1005.14
2022-09-17T03:49:49.596Z,1005.13
2022-09-17T03:50:49.712Z,1005.10
2022-09-17T03:51:49.830Z,1005.12
2022-09-17T03:52:49.954Z,1005.14
2022-09-17T03:53:50.206Z,1005.13
2022-09-17T03:54:50.252Z,1005.16
2022-09-17T03:55:50.401Z,1005.14
2022-09-17T03:56:50.524Z,1005.20
2022-09-17T03:57:50.645Z,1005.17
2022-09-17T03:58:50.766Z,1005.17
2022-09-17T03:59:50.901Z,1005.17
2022-09-17T04:00:51.053Z,1005.13
2022-09-17T04:01:51.318Z,1005.16
2022-09-17T04:02:51.329Z,1005.25
2022-09-17T04:03:51.440Z,1005.18
2022-09-17T04:04:51.581Z,1005.21
2022-09-17T04:05:51.734Z,1005.24
2022-09-17T04:06:51.863Z,1005.21
2022-09-17T04:07:51.982Z,1005.27
2022-09-17T04:08:52.101Z,1005.23
2022-09-17T04:09:52.232Z,1005.28
2022-09-17T04:10:52.361Z,1005.24
2022-09-17T04:11:52.510Z,1005.27
2022-09-17T04:12:52.637Z,1005.21
2022-09-17T04:13:52.750Z,1005.25
2022-09-17T04:14:52.885Z,1005.22
2022-09-17T04:15:53.068Z,1005.28
2022-09-17T04:16:53.202Z,1005.38
2022-09-17T04:17:53.322Z,1005.39
2022-09-17T04:18:53.442Z,1005.33
2022-09-17T04:19:53.566Z,1005.35
2022-09-17T04:20:53.692Z,1005.34
2022-09-17T04:21:53.842Z,1005.38
2022-09-17T04:22:53.962Z,1005.38
2022-09-17T04:23:54.083Z,1005.41
2022-09-17T04:24:54.219Z,1005.35
2022-09-17T04:25:54.383Z,1005.37
2022-09-17T04:26:54.512Z,1005.45
2022-09-17T04:27:54.660Z,1005.40
2022-09-17T04:28:54.791Z,1005.39
2022-09-17T04:29:54.899Z,1005.39
2022-09-17T04:30:55.067Z,1005.42
2022-09-17T04:31:55.194Z,1005.44
2022-09-17T04:32:55.312Z,1005.41
2022-09-17T04:33:55.433Z,1005.46
2022-09-17T04:34:55.559Z,1005.43
2022-09-17T04:35:55.674Z,1005.44
2022-09-17T04:36:55.813Z,1005.45
2022-09-17T04:37:55.948Z,1005.35
2022-09-17T04:38:56.080Z,1005.44
2022-09-17T04:39:56.263Z,1005.38
2022-09-17T04:40:56.322Z,1005.38
2022-09-17T04:41:56.446Z,1005.50
2022-09-17T04:42:56.578Z,1005.45
2022-09-17T04:43:56.807Z,1005.44
2022-09-17T04:44:56.830Z,1005.47
2022-09-17T04:45:56.950Z,1005.42
2022-09-17T04:46:57.183Z,1005.41
2022-09-17T04:47:58.691Z,1005.42
2022-09-17T04:48:57.360Z,1005.41
2022-09-17T04:49:57.511Z,1005.46
2022-09-17T04:50:57.635Z,1005.39
2022-09-17T04:51:57.760Z,1005.44
2022-09-17T04:52:57.895Z,1005.42
2022-09-17T04:53:58.018Z,1005.46
2022-09-17T04:54:58.164Z,1005.49
2022-09-17T04:55:58.301Z,1005.44
2022-09-17T04:56:58.439Z,1005.51
2022-09-17T04:57:58.595Z,1005.48
2022-09-17T04:58:58.701Z,1005.44
2022-09-17T04:59:58.819Z,1005.42
2022-09-17T05:00:59.007Z,1005.47
2022-09-17T05:01:59.161Z,1005.47
2022-09-17T05:02:59.215Z,1005.46
2022-09-17T05:03:59.407Z,1005.38
2022-09-17T05:04:59.496Z,1005.42
2022-09-17T05:05:59.627Z,1005.44
2022-09-17T05:06:59.760Z,1005.40
2022-09-17T05:07:59.948Z,1005.46
2022-09-17T05:09:00.097Z,1005.46
2022-09-17T05:10:00.245Z,1005.49
2022-09-17T05:11:00.408Z,1005.48
2022-09-17T05:12:00.572Z,1005.49
2022-09-17T05:13:00.804Z,1005.50
2022-09-17T05:14:02.278Z,1005.51
2022-09-17T05:15:00.977Z,1005.54
2022-09-17T05:16:01.111Z,1005.56
2022-09-17T05:17:01.185Z,1005.49
2022-09-17T05:18:01.351Z,1005.58
2022-09-17T05:19:01.497Z,1005.59
2022-09-17T05:20:01.638Z,1005.55
2022-09-17T05:21:57.792Z,1005.61
2022-09-17T05:22:57.911Z,1005.59
2022-09-17T05:23:58.042Z,1005.55
2022-09-17T05:24:58.181Z,1005.58
2022-09-17T05:25:58.321Z,1005.55
2022-09-17T05:26:58.450Z,1005.57
2022-09-17T05:27:58.582Z,1005.60
2022-09-17T05:28:58.841Z,1005.63
2022-09-17T05:29:58.850Z,1005.57
2022-09-17T05:30:58.960Z,1005.56
2022-09-17T05:31:59.050Z,1005.57
2022-09-17T05:32:59.192Z,1005.59
2022-09-17T05:33:59.323Z,1005.59
2022-09-17T05:35:03.595Z,1005.63
2022-09-17T05:36:00.582Z,1005.64
2022-09-17T05:36:59.703Z,1005.64
2022-09-17T05:37:59.839Z,1005.65
2022-09-17T05:38:59.976Z,1005.61
2022-09-17T05:40:00.241Z,1005.59
2022-09-17T05:41:00.239Z,1005.65
2022-09-17T05:42:00.391Z,1005.63
2022-09-17T05:43:00.520Z,1005.64
2022-09-17T05:44:00.672Z,1005.70
2022-09-17T05:45:01.213Z,1005.72
2022-09-17T05:46:00.860Z,1005.70
2022-09-17T05:47:00.970Z,1005.72
2022-09-17T05:48:01.048Z,1005.75
2022-09-17T05:49:01.179Z,1005.75
2022-09-17T05:50:01.320Z,1005.82
2022-09-17T05:51:01.468Z,1005.78
2022-09-17T05:52:01.572Z,1005.79
2022-09-17T05:53:01.708Z,1005.84
2022-09-17T05:54:01.848Z,1005.87
2022-09-17T05:55:01.982Z,1005.83
2022-09-17T05:56:02.127Z,1005.88
2022-09-17T05:57:02.221Z,1005.90
2022-09-17T05:58:02.361Z,1005.86
2022-09-17T05:59:02.490Z,1005.83
2022-09-17T06:00:02.629Z,1005.89
2022-09-17T06:01:02.785Z,1005.89
2022-09-17T06:02:02.949Z,1005.96
2022-09-17T06:03:03.041Z,1005.95
2022-09-17T06:04:03.125Z,1005.89
2022-09-17T06:05:03.269Z,1006.02
2022-09-17T06:06:03.411Z,1005.95
2022-09-17T06:07:03.549Z,1005.92
2022-09-17T06:08:03.685Z,1006.04
2022-09-17T06:09:03.821Z,1006.01
2022-09-17T06:10:03.950Z,1005.97
2022-09-17T06:11:04.139Z,1005.97
2022-09-17T06:12:04.235Z,1005.95
2022-09-17T06:13:05.791Z,1006.06
2022-09-17T06:14:04.498Z,1005.97
2022-09-17T06:15:04.679Z,1005.99
2022-09-17T06:16:04.854Z,1006.02
2022-09-17T06:17:04.879Z,1006.07
2022-09-17T06:18:04.970Z,1006.08
2022-09-17T06:19:05.109Z,1006.06
2022-09-17T06:20:05.247Z,1006.10
2022-09-17T06:21:05.444Z,1006.10
2022-09-17T06:22:05.507Z,1006.11
2022-09-17T06:23:05.647Z,1006.19
2022-09-17T06:24:05.798Z,1006.21
2022-09-17T06:25:05.906Z,1006.19
2022-09-17T06:26:06.010Z,1006.22
2022-09-17T06:27:06.167Z,1006.13
2022-09-17T06:28:06.267Z,1006.15
2022-09-17T06:29:06.432Z,1006.17
2022-09-17T06:30:06.527Z,1006.20
2022-09-17T06:31:06.729Z,1006.19
2022-09-17T06:32:06.836Z,1006.22
2022-09-17T06:33:06.976Z,1006.21
2022-09-17T06:34:07.095Z,1006.25
2022-09-17T06:35:07.197Z,1006.23
2022-09-17T06:36:12.395Z,1006.27
2022-09-17T06:37:08.465Z,1006.22
2022-09-17T06:38:07.557Z,1006.21
2022-09-17T06:39:07.704Z,1006.27
2022-09-17T06:40:07.870Z,1006.28
2022-09-17T06:41:07.948Z,1006.28
2022-09-17T06:42:08.068Z,1006.29
2022-09-17T06:43:08.185Z,1006.29
2022-09-17T06:44:08.288Z,1006.28
2022-09-17T06:45:14.479Z,1006.24
2022-09-17T06:46:09.690Z,1006.24
2022-09-17T06:47:08.746Z,1006.25
2022-09-17T06:48:08.841Z,1006.25
2022-09-17T06:49:08.989Z,1006.21
2022-09-17T06:50:09.106Z,1006.22
2022-09-17T06:51:09.397Z,1006.26
2022-09-17T06:52:09.333Z,1006.21
2022-09-17T06:53:09.454Z,1006.28
2022-09-17T06:54:09.545Z,1006.21
2022-09-17T06:55:09.695Z,1006.22
2022-09-17T06:56:09.809Z,1006.24
2022-09-17T06:57:09.954Z,1006.26
2022-09-17T06:58:10.046Z,1006.24
2022-09-17T06:59:10.154Z,1006.17
2022-09-17T07:00:10.253Z,1006.17
2022-09-17T07:01:10.479Z,1006.18
2022-09-17T07:02:10.645Z,1006.17
2022-09-17T07:03:10.635Z,1006.15
2022-09-17T07:04:10.765Z,1006.19
2022-09-17T07:05:10.904Z,1006.16
2022-09-17T07:06:11.038Z,1006.21
2022-09-17T07:07:11.185Z,1006.13
2022-09-17T07:08:11.304Z,1006.22
2022-09-17T07:09:11.427Z,1006.19
2022-09-17T07:10:11.524Z,1006.11
2022-09-17T07:11:11.677Z,1006.19
2022-09-17T07:12:11.786Z,1006.19
2022-09-17T07:13:11.933Z,1006.21
2022-09-17T07:14:12.020Z,1006.13
2022-09-17T07:15:12.197Z,1006.19
2022-09-17T07:16:12.302Z,1006.24
2022-09-17T07:17:12.433Z,1006.26
2022-09-17T07:18:12.526Z,1006.23
2022-09-17T07:19:14.802Z,1006.23
2022-09-17T07:20:12.735Z,1006.25
2022-09-17T07:21:12.877Z,1006.22
2022-09-17T07:22:13.008Z,1006.22
2022-09-17T07:23:13.151Z,1006.23
2022-09-17T07:24:13.251Z,1006.25
2022-09-17T07:25:13.391Z,1006.31
2022-09-17T07:26:13.535Z,1006.29
2022-09-17T07:27:13.672Z,1006.32
2022-09-17T07:28:13.836Z,1006.32
2022-09-17T07:29:13.949Z,1006.30
2022-09-17T07:30:14.045Z,1006.35
2022-09-17T07:31:16.546Z,1006.29
2022-09-17T07:32:14.292Z,1006.34
2022-09-17T07:33:14.452Z,1006.28
2022-09-17T07:34:14.556Z,1006.32
2022-09-17T07:35:14.651Z,1006.23
2022-09-17T07:36:14.792Z,1006.37
2022-09-17T07:37:14.932Z,1006.32
2022-09-17T07:38:15.072Z,1006.33
2022-09-17T07:39:15.232Z,1006.34
2022-09-17T07:40:15.360Z,1006.32
2022-09-17T07:41:15.473Z,1006.32
2022-09-17T07:42:15.617Z,1006.34
2022-09-17T07:43:15.753Z,1006.29
2022-09-17T07:44:15.921Z,1006.29
2022-09-17T07:45:16.001Z,1006.34
2022-09-17T07:46:16.238Z,1006.30
2022-09-17T07:47:16.293Z,1006.32
2022-09-17T07:48:16.369Z,1006.25
2022-09-17T07:49:16.509Z,1006.24
2022-09-17T07:50:16.642Z,1006.24
2022-09-17T07:51:16.773Z,1006.25
2022-09-17T07:52:16.902Z,1006.29
2022-09-17T07:53:17.050Z,1006.32
2022-09-17T07:54:17.191Z,1006.22
2022-09-17T07:55:17.362Z,1006.28
2022-09-17T07:56:17.451Z,1006.20
2022-09-17T07:57:17.551Z,1006.24
2022-09-17T07:58:17.690Z,1006.23
2022-09-17T07:59:17.842Z,1006.26
2022-09-17T08:00:17.943Z,1006.24
2022-09-17T08:01:18.176Z,1006.24
2022-09-17T08:02:23.248Z,1006.27
2022-09-17T08:03:19.322Z,1006.17
2022-09-17T08:04:18.428Z,1006.16
2022-09-17T08:05:18.582Z,1006.23
2022-09-17T08:06:19.399Z,1006.13
2022-09-17T08:07:19.403Z,1006.17
2022-09-17T08:08:21.221Z,1006.11
2022-09-17T08:09:19.771Z,1006.15
2022-09-17T08:10:19.584Z,1006.20
2022-09-17T08:11:38.245Z,1006.16
2022-09-17T08:12:20.466Z,1006.28
2022-09-17T08:13:19.591Z,1006.20
2022-09-17T08:14:19.700Z,1006.25
2022-09-17T08:15:19.799Z,1006.18
2022-09-17T08:16:20.354Z,1006.23
2022-09-17T08:17:20.394Z,1006.24
2022-09-17T08:18:20.140Z,1006.21
2022-09-17T08:19:21.852Z,1006.25
2022-09-17T08:20:20.480Z,1006.27
2022-09-17T08:21:20.559Z,1006.28
2022-09-17T08:22:20.816Z,1006.25
2022-09-17T08:23:20.790Z,1006.37
2022-09-17T08:24:20.950Z,1006.27
2022-09-17T08:25:21.068Z,1006.26
2022-09-17T08:26:21.161Z,1006.31
2022-09-17T08:27:21.316Z,1006.24
2022-09-17T08:28:21.417Z,1006.29
2022-09-17T08:29:21.551Z,1006.29
2022-09-17T08:30:21.689Z,1006.28
2022-09-17T08:31:21.884Z,1006.26
2022-09-17T08:32:21.970Z,1006.26
2022-09-17T08:33:22.121Z,1006.18
2022-09-17T08:34:22.222Z,1006.24
2022-09-17T08:35:22.381Z,1006.26
2022-09-17T08:36:22.490Z,1006.24
2022-09-17T08:37:22.597Z,1006.23
2022-09-17T08:38:22.729Z,1006.19
2022-09-17T08:39:22.870Z,1006.20
2022-09-17T08:40:23.142Z,1006.16
2022-09-17T08:41:23.112Z,1006.19
2022-09-17T08:42:23.248Z,1006.17
2022-09-17T08:43:23.390Z,1006.17
2022-09-17T08:44:23.493Z,1006.21
2022-09-17T08:45:23.659Z,1006.18
2022-09-17T08:46:23.757Z,1006.16
2022-09-17T08:47:23.866Z,1006.16
2022-09-17T08:48:24.001Z,1006.09
2022-09-17T08:49:24.141Z,1006.17
2022-09-17T08:50:24.295Z,1006.16
2022-09-17T08:51:24.399Z,1006.13
2022-09-17T08:52:24.499Z,1006.20
2022-09-17T08:53:24.638Z,1006.23
2022-09-17T08:54:24.772Z,1006.16
2022-09-17T08:55:24.940Z,1006.09
2022-09-17T08:56:26.619Z,1006.01
2022-09-17T08:57:25.516Z,1006.09
2022-09-17T08:58:25.260Z,1006.10
2022-09-17T08:59:25.407Z,1006.11
2022-09-17T09:00:25.519Z,1006.18
2022-09-17T09:01:25.731Z,1006.08
2022-09-17T09:02:25.841Z,1006.17
2022-09-17T09:03:25.881Z,1006.13
2022-09-17T09:04:25.976Z,1006.15
2022-09-17T09:05:26.141Z,1006.13
2022-09-17T09:06:26.228Z,1006.14
2022-09-17T09:07:26.369Z,1006.18
2022-09-17T09:08:26.509Z,1006.11
2022-09-17T09:09:26.657Z,1006.04
2022-09-17T09:10:26.817Z,1006.08
2022-09-17T09:11:26.917Z,1006.17
2022-09-17T09:12:27.061Z,1006.11
2022-09-17T09:13:27.205Z,1006.08
2022-09-17T09:14:27.341Z,1006.09
2022-09-17T09:15:27.598Z,1006.04
2022-09-17T09:16:27.587Z,1006.08
2022-09-17T09:17:27.661Z,1006.15
2022-09-17T09:18:27.797Z,1006.09
2022-09-17T09:19:28.055Z,1006.09
2022-09-17T09:20:28.049Z,1006.13
2022-09-17T09:21:28.171Z,1006.16
2022-09-17T09:22:28.270Z,1006.13
2022-09-17T09:23:28.428Z,1006.23
2022-09-17T09:24:28.536Z,1006.13
2022-09-17T09:25:28.688Z,1006.22
2022-09-17T09:26:28.801Z,1006.20
2022-09-17T09:27:28.908Z,1006.22
2022-09-17T09:28:29.608Z,1006.15
2022-09-17T09:29:29.194Z,1006.21
2022-09-17T09:30:29.302Z,1006.11
2022-09-17T09:31:29.613Z,1006.17
2022-09-17T09:32:29.509Z,1006.16
2022-09-17T09:33:31.100Z,1006.11
2022-09-17T09:34:30.209Z,1006.15
2022-09-17T09:35:30.693Z,1006.13
2022-09-17T09:36:30.050Z,1006.15
2022-09-17T09:37:30.162Z,1006.18
2022-09-17T09:38:30.261Z,1006.15
2022-09-17T09:39:32.294Z,1006.18
2022-09-17T09:40:31.546Z,1006.14
2022-09-17T09:41:30.667Z,1006.09
2022-09-17T09:42:30.737Z,1006.08
2022-09-17T09:43:46.603Z,1006.04
2022-09-17T09:44:31.990Z,1006.12
2022-09-17T09:45:31.190Z,1006.06
2022-09-17T09:46:31.303Z,1006.20
2022-09-17T09:47:31.370Z,1006.07
2022-09-17T09:48:31.490Z,1006.06
2022-09-17T09:49:31.598Z,1006.07
2022-09-17T09:50:54.747Z,1006.06
2022-09-17T09:51:32.890Z,1006.12
2022-09-17T09:52:33.419Z,1006.14
2022-09-17T09:53:32.118Z,1006.06
2022-09-17T09:54:32.231Z,1006.20
2022-09-17T09:55:32.312Z,1006.13
2022-09-17T09:56:32.473Z,1006.12
2022-09-17T09:57:32.608Z,1006.15
2022-09-17T09:58:32.707Z,1006.13
2022-09-17T09:59:32.831Z,1006.14
2022-09-17T10:00:32.919Z,1006.07
2022-09-17T10:01:33.119Z,1006.06
2022-09-17T10:02:33.288Z,1006.03
2022-09-17T10:03:33.261Z,1006.00
2022-09-17T10:04:33.382Z,1006.02
2022-09-17T10:05:33.509Z,1005.79
2022-09-17T10:06:33.601Z,1005.92
2022-09-17T10:07:33.773Z,1005.98
2022-09-17T10:08:33.865Z,1005.88
2022-09-17T10:09:33.991Z,1005.99
2022-09-17T10:10:34.082Z,1005.88
2022-09-17T10:11:34.250Z,1005.92
2022-09-17T10:12:34.383Z,1005.89
2022-09-17T10:13:34.491Z,1005.91
2022-09-17T10:14:34.570Z,1005.97
2022-09-17T10:15:34.731Z,1006.08
2022-09-17T10:16:34.881Z,1006.10
2022-09-17T10:17:34.975Z,1006.22
2022-09-17T10:18:35.051Z,1006.27
2022-09-17T10:19:35.203Z,1006.20
2022-09-17T10:20:35.307Z,1006.22
2022-09-17T10:21:35.460Z,1006.24
2022-09-17T10:22:35.613Z,1006.27
2022-09-17T10:23:35.741Z,1006.33
2022-09-17T10:24:35.819Z,1006.25
2022-09-17T10:25:35.978Z,1006.34
2022-09-17T10:26:36.072Z,1006.32
2022-09-17T10:27:36.180Z,1006.26
2022-09-17T10:28:37.013Z,1006.32
2022-09-17T10:29:37.839Z,1006.29
2022-09-17T10:30:36.518Z,1006.26
2022-09-17T10:31:36.773Z,1006.22
2022-09-17T10:32:36.781Z,1006.13
2022-09-17T10:33:36.868Z,1006.20
2022-09-17T10:34:37.001Z,1006.10
2022-09-17T10:35:37.141Z,1006.11
2022-09-17T10:36:38.010Z,1006.04
2022-09-17T10:37:37.593Z,1006.08
2022-09-17T10:38:37.563Z,1006.10
2022-09-17T10:39:37.650Z,1006.06
2022-09-17T10:40:37.908Z,1006.07
2022-09-17T10:41:38.029Z,1006.02
2022-09-17T10:42:38.109Z,1005.99
2022-09-17T10:43:38.196Z,1006.02
2022-09-17T10:44:38.289Z,1006.02
2022-09-17T10:45:38.430Z,1006.01
2022-09-17T10:46:38.613Z,1006.06
2022-09-17T10:47:38.694Z,1006.06
2022-09-17T10:48:38.864Z,1005.97
2022-09-17T10:49:38.942Z,1005.96
2022-09-17T10:50:40.594Z,1005.91
2022-09-17T10:51:39.190Z,1005.89
2022-09-17T10:52:39.342Z,1005.89
2022-09-17T10:53:39.459Z,1005.88
2022-09-17T10:54:39.590Z,1005.96
2022-09-17T10:55:39.674Z,1005.87
2022-09-17T10:56:39.822Z,1005.74
2022-09-17T10:57:39.958Z,1005.92
2022-09-17T10:58:42.367Z,1005.86
2022-09-17T10:59:40.256Z,1005.73
2022-09-17T11:00:40.364Z,1005.74
2022-09-17T11:01:42.073Z,1005.73
2022-09-17T11:02:40.785Z,1005.74
2022-09-17T11:03:40.791Z,1005.67
2022-09-17T11:04:40.884Z,1005.76
2022-09-17T11:05:40.984Z,1005.76
2022-09-17T11:06:41.139Z,1005.70
2022-09-17T11:07:41.256Z,1005.64
2022-09-17T11:08:41.384Z,1005.74
2022-09-17T11:09:41.464Z,1005.75
2022-09-17T11:10:41.612Z,1005.73
2022-09-17T11:11:41.743Z,1005.60
2022-09-17T11:12:41.896Z,1005.57
2022-09-17T11:13:42.004Z,1005.58
2022-09-17T11:14:42.144Z,1005.69
2022-09-17T11:15:42.293Z,1005.74
2022-09-17T11:16:42.468Z,1005.74
2022-09-17T11:17:43.497Z,1005.77
2022-09-17T11:18:42.806Z,1005.70
2022-09-17T11:19:42.825Z,1005.79
2022-09-17T11:20:42.945Z,1005.82
2022-09-17T11:21:43.046Z,1005.92
2022-09-17T11:22:43.205Z,1005.80
2022-09-17T11:23:43.361Z,1005.83
2022-09-17T11:24:43.445Z,1005.88
2022-09-17T11:25:43.570Z,1005.83
2022-09-17T11:26:43.693Z,1005.79
2022-09-17T11:27:43.818Z,1005.81
2022-09-17T11:28:43.957Z,1005.78
2022-09-17T11:29:44.041Z,1005.77
2022-09-17T11:30:44.186Z,1005.74
2022-09-17T11:31:44.379Z,1005.76
2022-09-17T11:32:44.445Z,1005.73
2022-09-17T11:33:44.646Z,1005.64
2022-09-17T11:34:44.658Z,1005.74
2022-09-17T11:35:44.786Z,1005.65
2022-09-17T11:36:44.914Z,1005.67
2022-09-17T11:37:45.008Z,1005.57
2022-09-17T11:38:45.147Z,1005.63
2022-09-17T11:39:45.258Z,1005.61
2022-09-17T11:40:45.395Z,1005.64
2022-09-17T11:41:45.574Z,1005.68
2022-09-17T11:42:45.631Z,1005.63
2022-09-17T11:43:45.747Z,1005.62
2022-09-17T11:44:45.887Z,1005.53
2022-09-17T11:45:45.989Z,1005.58
2022-09-17T11:46:46.146Z,1005.60
2022-09-17T11:47:46.228Z,1005.57
2022-09-17T11:48:46.375Z,1005.53
2022-09-17T11:49:46.513Z,1005.54
2022-09-17T11:50:46.599Z,1005.46
2022-09-17T11:51:46.727Z,1005.43
2022-09-17T11:52:46.827Z,1005.52
2022-09-17T11:53:46.968Z,1005.39
2022-09-17T11:54:47.068Z,1005.59
2022-09-17T11:55:47.208Z,1005.45
2022-09-17T11:56:47.302Z,1005.42
2022-09-17T11:57:47.423Z,1005.45
2022-09-17T11:58:47.536Z,1005.40
2022-09-17T11:59:47.660Z,1005.32
2022-09-17T12:00:47.796Z,1005.42
2022-09-17T12:01:47.903Z,1005.40
2022-09-17T12:02:48.063Z,1005.43
2022-09-17T12:03:48.189Z,1005.43
2022-09-17T12:04:49.760Z,1005.30
2022-09-17T12:05:48.442Z,1005.36
2022-09-17T12:06:48.569Z,1005.27
2022-09-17T12:07:48.683Z,1005.30